Juneau, WI

9:02 AM CST en Marzo 03, 2015 (GMT -0600)
Dodge County | Change Station
CLOSE
Current Station
Aeropuerto
Location: Juneau,
Altura: 935 ft
Estaciones meteorológicas cercanas
Aviso en curso: Winter Weather Advisory

Alt 935 ft 43.43 °N, 88.70 °W | Updated 27 minutes ago

Light Snow
Débil nevada
24 ° F
Sensación térmica 12 ° F
N
15
Viento Variable Viento desde SE
Gusts 20 mph

Hoy
Alta -- | Baja -- ° F
--% Posibilidad de precipitaciones
Ayer
Alta -- | Baja -- ° F
Precip. -- pul
6:28 AM 5:45 PM
Gibosa creciente, 96% visible
Presión 29.75 pul
Visibilidad 2.0 Millas
Nubes Nubes dispersas 900 ft
Muy nublado 2200 ft
Nublado 3800 ft
Vientos helados 12 ° F
Punto de rocío 22 ° F
Humedad 89%
Precipitaciones 0.00 pul
Espesor de la nieve No disponible.
UV 0 de una escala de 12
Polen .50 de una escala de 12
Calidad del aire No disponible.
Flu Activity No disponible.
METAR KUNU 031435Z AUTO 14013G17KT 2SM -SN SCT009 BKN022 OVC038 M04/M06 A2975 RMK AO2 T10421057

More Conditions Fewer Conditions

Presión 29.75 pul
Visibilidad 2.0 Millas
Nubes Nubes dispersas 900 ft
Muy nublado 2200 ft
Nublado 3800 ft
Vientos helados 12 ° F
Punto de rocío 22 ° F
Humedad 89%
Precipitaciones 0.00 pul
Espesor de la nieve No disponible.
UV 0 de una escala de 12
Polen .50 de una escala de 12
Calidad del aire No disponible.
Flu Activity No disponible.
METAR KUNU 031435Z AUTO 14013G17KT 2SM -SN SCT009 BKN022 OVC038 M04/M06 A2975 RMK AO2 T10421057

More Conditions Fewer Conditions

10-Day Weather Forecast

Almanac

Astronomía

Mar. 03, 2015 Salida Puesta
Hora real
Crepúsculo civil
Crepúsculo náutico
Crepúsculo astronómico
Luna
Horas de luz
Horas de luz
Tomorrow will be .
, % of the Moon is Illuminated

Extremos de hoy

Máximos del estado Bajos del estado

Community

WunderPhotos

Upload Photos

1,802,133 ¡fotos cargadas!

WunderBlogs® & News

Nearby

Calidad del aire

  Calidad del aire Índice AQ Contaminante
Not available.

Grosos de nieve

Estación Profundido Altura

Actividad de terremotos

Ciudad Distance Mag. Tiempo y dato
Magnitud mínima muestra es 2,5.

Temperaturas de aguas costeras

Lugar Temperatura

Estaciones meteorológicas cercanas

Winter Weather Advisory
Statement as of 3:27 AM CST en Marzo 03, 2015

... Winter Weather Advisory remains in effect until 6 PM CST this
evening...

A Winter Weather Advisory remains in effect until 6 PM CST this
evening.

* Timing... snow will arrive this morning and taper off during
the afternoon.

* Snow accumulations... 2 to 3 inches.

* Impacts... a period of snow... mixing with sleet and possibly
freezing rain... will cause slippery roads this morning.

Precautionary/preparedness actions...

A Winter Weather Advisory means that periods of snow... and sleet will
cause travel difficulties. Be prepared for slippery roads and
limited visibilities... and use caution while driving.